createdAt,value
2023-05-15T00:00:10.921Z,15.40
2023-05-15T00:02:41.372Z,15.90
2023-05-15T00:05:10.229Z,17.53
2023-05-15T00:07:40.264Z,17.40
2023-05-15T00:10:10.333Z,15.80
2023-05-15T00:12:39.033Z,14.70
2023-05-15T00:15:08.964Z,15.20
2023-05-15T00:17:37.801Z,15.70
2023-05-15T00:20:10.498Z,17.10
2023-05-15T00:22:39.187Z,15.07
2023-05-15T00:25:08.899Z,16.03
2023-05-15T00:27:37.577Z,18.60
2023-05-15T00:30:08.043Z,20.80
2023-05-15T00:32:36.824Z,23.10
2023-05-15T00:35:08.030Z,24.60
2023-05-15T00:37:36.817Z,21.70
2023-05-15T00:40:07.032Z,23.33
2023-05-15T00:42:36.398Z,25.07
2023-05-15T00:45:07.504Z,23.63
2023-05-15T00:47:36.737Z,23.43
2023-05-15T00:50:06.538Z,22.60
2023-05-15T00:52:37.378Z,23.37
2023-05-15T00:55:06.784Z,20.33
2023-05-15T00:57:35.758Z,19.87
2023-05-15T01:00:07.351Z,20.20
2023-05-15T01:02:36.301Z,20.90
2023-05-15T01:05:05.402Z,18.30
2023-05-15T01:07:42.319Z,21.10
2023-05-15T01:10:12.194Z,17.23
2023-05-15T01:12:42.894Z,19.40
2023-05-15T01:15:12.355Z,18.80
2023-05-15T01:17:41.226Z,18.50
2023-05-15T01:20:12.297Z,18.40
2023-05-15T01:22:53.241Z,18.43
2023-05-15T01:25:47.524Z,18.20
2023-05-15T01:28:23.783Z,18.30
2023-05-15T01:30:55.259Z,16.60
2023-05-15T01:33:29.647Z,17.30
2023-05-15T01:36:02.790Z,18.57
2023-05-15T01:38:39.775Z,14.63
2023-05-15T01:41:13.860Z,16.10
2023-05-15T01:43:46.814Z,16.30
2023-05-15T01:46:18.735Z,14.90
2023-05-15T01:48:49.559Z,15.30
2023-05-15T01:51:19.259Z,16.07
2023-05-15T01:53:49.233Z,15.47
2023-05-15T01:56:21.434Z,14.97
2023-05-15T01:58:53.010Z,13.57
2023-05-15T02:01:22.328Z,15.93
2023-05-15T02:03:51.537Z,14.97
2023-05-15T02:06:20.539Z,15.50
2023-05-15T02:08:50.731Z,15.10
2023-05-15T02:11:19.435Z,14.80
2023-05-15T02:13:48.815Z,13.37
2023-05-15T02:16:19.071Z,14.17
2023-05-15T02:18:47.855Z,13.40
2023-05-15T02:21:16.811Z,13.37
2023-05-15T02:23:45.487Z,12.97
2023-05-15T02:26:25.130Z,13.70
2023-05-15T02:29:05.596Z,13.47
2023-05-15T02:31:42.935Z,14.00
2023-05-15T02:34:18.663Z,14.67
2023-05-15T02:36:50.458Z,13.63
2023-05-15T02:39:19.824Z,12.90
2023-05-15T02:41:49.577Z,13.57
2023-05-15T02:44:19.737Z,13.73
2023-05-15T02:46:51.964Z,12.83
2023-05-15T02:49:20.824Z,14.40
2023-05-15T02:51:49.783Z,13.10
2023-05-15T02:54:18.574Z,12.90
2023-05-15T02:56:47.204Z,14.03
2023-05-15T02:59:20.076Z,14.27
2023-05-15T03:01:50.313Z,13.60
2023-05-15T03:04:19.108Z,12.30
2023-05-15T03:06:47.828Z,13.20
2023-05-15T03:09:16.705Z,13.50
2023-05-15T03:11:45.395Z,11.97
2023-05-15T03:14:14.107Z,12.97
2023-05-15T03:16:42.916Z,13.10
2023-05-15T03:19:13.088Z,12.60
2023-05-15T03:21:41.816Z,13.10
2023-05-15T03:24:10.543Z,11.30
2023-05-15T03:26:40.694Z,11.03
2023-05-15T03:29:09.316Z,11.37
2023-05-15T03:31:38.025Z,9.87
2023-05-15T03:34:06.747Z,10.10
2023-05-15T03:36:36.836Z,10.20
2023-05-15T03:39:06.189Z,9.67
2023-05-15T03:41:34.953Z,10.17
2023-05-15T03:44:03.735Z,9.57
2023-05-15T03:46:32.494Z,9.53
2023-05-15T03:49:01.254Z,8.90
2023-05-15T03:51:30.095Z,8.87
2023-05-15T03:54:00.420Z,9.40
2023-05-15T03:56:29.101Z,8.97
2023-05-15T03:58:57.831Z,10.33
2023-05-15T04:01:26.558Z,10.63
2023-05-15T04:03:55.411Z,10.60
2023-05-15T04:06:24.107Z,10.90
2023-05-15T04:08:52.782Z,9.60
2023-05-15T04:11:24.007Z,10.30
2023-05-15T04:13:52.644Z,10.50
2023-05-15T04:16:21.699Z,11.17
2023-05-15T04:18:50.511Z,11.70
2023-05-15T04:21:19.694Z,12.13
2023-05-15T04:23:48.649Z,11.97
2023-05-15T04:26:17.391Z,12.10
2023-05-15T04:29:00.189Z,12.67
2023-05-15T04:31:32.408Z,12.43
2023-05-15T04:34:01.111Z,13.70
2023-05-15T04:36:30.041Z,14.60
2023-05-15T04:38:58.775Z,13.83
2023-05-15T04:41:27.569Z,14.33
2023-05-15T04:43:57.710Z,14.17
2023-05-15T04:46:26.681Z,13.30
2023-05-15T04:48:55.347Z,13.93
2023-05-15T04:51:23.912Z,13.13
2023-05-15T04:53:52.780Z,12.30
2023-05-15T04:56:21.919Z,11.23
2023-05-15T04:58:50.627Z,10.80
2023-05-15T05:01:20.770Z,12.23
2023-05-15T05:03:49.467Z,12.60
2023-05-15T05:06:18.141Z,12.20
2023-05-15T05:08:46.891Z,12.47
2023-05-15T05:11:15.536Z,11.77
2023-05-15T05:13:44.130Z,13.73
2023-05-15T05:16:12.745Z,12.70
2023-05-15T05:18:42.854Z,11.13
2023-05-15T05:21:11.587Z,12.50
2023-05-15T05:23:40.361Z,11.87
2023-05-15T05:26:09.870Z,12.30
2023-05-15T05:28:38.543Z,12.93
2023-05-15T05:31:08.870Z,13.20
2023-05-15T05:33:37.523Z,12.40
2023-05-15T05:36:08.238Z,11.10
2023-05-15T05:38:37.539Z,10.70
2023-05-15T05:41:06.245Z,12.33
2023-05-15T05:43:34.928Z,11.43
2023-05-15T05:46:03.930Z,11.87
2023-05-15T05:48:32.520Z,10.60
2023-05-15T05:51:01.158Z,10.33
2023-05-15T05:53:31.276Z,10.00
2023-05-15T05:55:59.848Z,9.23
2023-05-15T05:58:28.642Z,11.00
2023-05-15T06:00:57.616Z,10.77
2023-05-15T06:03:26.596Z,11.17
2023-05-15T06:05:55.451Z,9.87
2023-05-15T06:08:24.376Z,10.53
2023-05-15T06:10:54.656Z,10.33
2023-05-15T06:13:23.803Z,9.90
2023-05-15T06:15:53.305Z,11.17
2023-05-15T06:18:22.631Z,10.13
2023-05-15T06:20:51.551Z,10.87
2023-05-15T06:23:20.628Z,10.00
2023-05-15T06:25:50.749Z,11.10
2023-05-15T06:28:21.474Z,10.43
2023-05-15T06:30:50.264Z,10.57
2023-05-15T06:33:18.981Z,10.93
2023-05-15T06:35:48.131Z,11.53
2023-05-15T06:38:17.050Z,11.00
2023-05-15T06:40:45.936Z,10.60
2023-05-15T06:43:14.739Z,9.97
2023-05-15T06:45:45.308Z,11.20
2023-05-15T06:48:14.205Z,11.97
2023-05-15T06:50:42.961Z,11.30
2023-05-15T06:53:14.384Z,11.10
2023-05-15T06:55:43.422Z,11.57
2023-05-15T06:58:12.192Z,10.27
2023-05-15T07:00:41.313Z,10.40
2023-05-15T07:03:11.531Z,10.07
2023-05-15T07:05:40.331Z,10.53
2023-05-15T07:08:08.931Z,11.10
2023-05-15T07:10:37.845Z,10.33
2023-05-15T07:13:06.844Z,9.67
2023-05-15T07:15:35.956Z,10.13
2023-05-15T07:18:05.535Z,9.40
2023-05-15T07:20:36.120Z,9.73
2023-05-15T07:23:05.457Z,9.83
2023-05-15T07:25:34.196Z,8.77
2023-05-15T07:28:03.665Z,10.03
2023-05-15T07:30:32.730Z,7.97
2023-05-15T07:33:01.585Z,9.97
2023-05-15T07:35:30.776Z,8.30
2023-05-15T07:38:01.753Z,9.90
2023-05-15T07:40:30.602Z,8.87
2023-05-15T07:42:59.616Z,8.63
2023-05-15T07:45:29.017Z,9.47
2023-05-15T07:47:59.465Z,8.90
2023-05-15T07:50:28.691Z,8.90
2023-05-15T07:52:58.179Z,9.80
2023-05-15T07:55:28.750Z,8.07
2023-05-15T07:57:57.332Z,10.00
2023-05-15T08:00:26.215Z,8.90
2023-05-15T08:02:55.074Z,8.40
2023-05-15T08:05:27.503Z,9.30
2023-05-15T08:07:56.561Z,8.70
2023-05-15T08:10:25.871Z,8.67
2023-05-15T08:12:56.374Z,8.00
2023-05-15T08:15:25.578Z,7.80
2023-05-15T08:17:56.003Z,8.30
2023-05-15T08:20:25.131Z,9.27
2023-05-15T08:22:54.013Z,9.10
2023-05-15T08:25:22.762Z,8.67
2023-05-15T08:27:51.986Z,9.70
2023-05-15T08:30:22.347Z,9.30
2023-05-15T08:32:51.377Z,10.43
2023-05-15T08:35:20.337Z,9.90
2023-05-15T08:37:48.962Z,8.70
2023-05-15T08:40:19.798Z,9.47
2023-05-15T08:42:57.478Z,8.17
2023-05-15T08:45:28.190Z,9.00
2023-05-15T08:47:59.312Z,9.83
2023-05-15T08:50:28.579Z,10.33
2023-05-15T08:53:00.827Z,11.10
2023-05-15T08:55:30.204Z,10.07
2023-05-15T08:58:00.347Z,10.10
2023-05-15T09:00:31.680Z,13.50
2023-05-15T09:03:02.617Z,10.37
2023-05-15T09:05:33.277Z,12.23
2023-05-15T09:08:07.711Z,11.33
2023-05-15T09:10:37.991Z,11.53
2023-05-15T09:13:26.269Z,12.03
2023-05-15T09:15:56.574Z,9.70
2023-05-15T09:18:26.044Z,10.83
2023-05-15T09:20:56.300Z,11.63
2023-05-15T09:23:27.947Z,13.27
2023-05-15T09:25:58.875Z,13.40
2023-05-15T09:28:30.160Z,13.77
2023-05-15T09:31:02.350Z,12.77
2023-05-15T09:33:33.404Z,12.97
2023-05-15T09:36:02.283Z,13.87
2023-05-15T09:38:31.424Z,14.07
2023-05-15T09:41:04.787Z,14.43
2023-05-15T09:43:36.616Z,14.30
2023-05-15T09:46:08.881Z,15.30
2023-05-15T09:48:38.600Z,15.03
2023-05-15T09:51:15.735Z,14.43
2023-05-15T09:53:44.844Z,13.70
2023-05-15T09:56:14.008Z,13.57
2023-05-15T09:58:54.722Z,13.90
2023-05-15T10:01:25.525Z,13.47
2023-05-15T10:04:01.357Z,12.87
2023-05-15T10:06:37.814Z,13.37
2023-05-15T10:09:07.072Z,14.70
2023-05-15T10:11:37.711Z,11.40
2023-05-15T10:14:18.054Z,10.40
2023-05-15T10:19:58.768Z,9.30
2023-05-15T10:23:07.467Z,9.80
2023-05-15T10:25:42.936Z,11.17
2023-05-15T10:28:13.444Z,12.33
2023-05-15T10:30:43.879Z,11.17
2023-05-15T10:33:16.608Z,10.67
2023-05-15T10:35:46.218Z,10.20
2023-05-15T10:38:15.314Z,9.63
2023-05-15T10:40:45.065Z,8.93
2023-05-15T10:43:15.696Z,8.60
2023-05-15T10:45:45.748Z,7.50
2023-05-15T10:48:17.310Z,6.70
2023-05-15T10:50:46.164Z,7.17
2023-05-15T10:53:15.131Z,5.13
2023-05-15T10:55:47.208Z,4.73
2023-05-15T10:58:16.018Z,4.40
2023-05-15T11:00:46.049Z,4.50
2023-05-15T11:03:47.882Z,5.10
2023-05-15T11:06:17.719Z,5.27
2023-05-15T11:08:46.334Z,6.80
2023-05-15T11:11:57.464Z,6.93
2023-05-15T11:14:27.852Z,6.60
2023-05-15T11:17:01.017Z,6.27
2023-05-15T11:19:39.738Z,6.77
2023-05-15T11:22:19.690Z,6.90
2023-05-15T11:24:57.146Z,7.17
2023-05-15T11:27:27.647Z,8.73
2023-05-15T11:30:13.743Z,7.00
2023-05-15T11:32:53.053Z,7.17
2023-05-15T11:35:25.614Z,5.67
2023-05-15T11:37:56.347Z,5.73
2023-05-15T11:40:27.388Z,5.13
2023-05-15T11:43:04.698Z,5.60
2023-05-15T11:45:35.061Z,5.57
2023-05-15T11:48:05.609Z,6.20
2023-05-15T11:50:37.215Z,4.67
2023-05-15T11:53:07.543Z,5.37
2023-05-15T11:55:37.628Z,5.60
2023-05-15T11:58:07.127Z,10.87
2023-05-15T12:00:35.905Z,6.30
2023-05-15T12:03:05.142Z,6.50
2023-05-15T12:05:35.437Z,17.73
2023-05-15T12:08:04.289Z,11.53
2023-05-15T12:10:33.685Z,5.40
2023-05-15T12:13:02.511Z,16.27
2023-05-15T12:15:31.486Z,6.10
2023-05-15T12:18:04.792Z,6.17
2023-05-15T12:20:37.782Z,6.17
2023-05-15T12:23:07.982Z,9.10
2023-05-15T12:25:38.123Z,4.10
2023-05-15T12:28:07.560Z,5.33
2023-05-15T12:30:37.280Z,5.50
2023-05-15T12:33:07.493Z,5.67
2023-05-15T12:35:38.474Z,21.07
2023-05-15T12:38:07.435Z,9.87
2023-05-15T12:40:37.088Z,9.07
2023-05-15T12:43:08.809Z,9.00
2023-05-15T12:45:40.394Z,3.77
2023-05-15T12:48:09.179Z,4.87
2023-05-15T12:50:39.510Z,10.20
2023-05-15T12:53:08.324Z,3.30
2023-05-15T12:55:38.649Z,3.30
2023-05-15T12:58:08.540Z,5.37
2023-05-15T13:00:38.761Z,3.20
2023-05-15T13:03:10.049Z,3.70
2023-05-15T13:05:41.073Z,3.00
2023-05-15T13:08:09.732Z,3.17
2023-05-15T13:10:39.305Z,3.63
2023-05-15T13:13:07.993Z,3.20
2023-05-15T13:15:38.512Z,4.50
2023-05-15T13:18:09.235Z,3.63
2023-05-15T13:20:40.828Z,7.13
2023-05-15T13:23:10.642Z,4.50
2023-05-15T13:25:39.531Z,4.43
2023-05-15T13:28:09.066Z,5.23
2023-05-15T13:30:41.805Z,5.20
2023-05-15T13:33:12.040Z,5.00
2023-05-15T13:35:47.000Z,5.53
2023-05-15T13:38:15.744Z,5.60
2023-05-15T13:40:44.547Z,6.43
2023-05-15T13:43:13.398Z,5.30
2023-05-15T13:45:42.492Z,6.00
2023-05-15T13:48:11.341Z,5.37
2023-05-15T13:50:43.436Z,6.23
2023-05-15T13:53:12.761Z,6.40
2023-05-15T13:55:41.618Z,7.37
2023-05-15T13:58:11.948Z,6.63
2023-05-15T14:00:41.295Z,7.37
2023-05-15T14:03:11.317Z,6.83
2023-05-15T14:05:43.504Z,6.93
2023-05-15T14:08:12.355Z,6.40
2023-05-15T14:10:41.403Z,6.63
2023-05-15T14:13:10.283Z,6.47
2023-05-15T14:15:39.165Z,7.07
2023-05-15T14:18:08.094Z,6.20
2023-05-15T14:20:37.001Z,7.67
2023-05-15T14:23:07.105Z,6.73
2023-05-15T14:25:36.073Z,6.90
2023-05-15T14:28:04.957Z,6.83
2023-05-15T14:30:34.172Z,7.07
2023-05-15T14:33:03.379Z,6.57
2023-05-15T14:35:32.388Z,5.43
2023-05-15T14:38:01.939Z,5.43
2023-05-15T14:40:32.196Z,7.47
2023-05-15T14:43:01.286Z,5.70
2023-05-15T14:45:30.312Z,6.20
2023-05-15T14:47:59.108Z,5.77
2023-05-15T14:50:28.675Z,4.70
2023-05-15T14:52:57.419Z,4.53
2023-05-15T14:55:26.143Z,5.43
2023-05-15T14:57:56.318Z,7.10
2023-05-15T15:00:25.553Z,6.90
2023-05-15T15:02:54.878Z,6.03
2023-05-15T15:05:23.914Z,6.73
2023-05-15T15:08:04.377Z,6.67
2023-05-15T15:10:35.058Z,7.20
2023-05-15T15:13:06.197Z,4.80
2023-05-15T15:15:35.946Z,5.00
2023-05-15T15:18:05.010Z,8.97
2023-05-15T15:20:34.250Z,7.40
2023-05-15T15:23:04.702Z,7.40
2023-05-15T15:25:34.555Z,8.10
2023-05-15T15:28:05.413Z,7.53
2023-05-15T15:30:34.490Z,8.03
2023-05-15T15:33:03.280Z,8.87
2023-05-15T15:35:32.067Z,7.97
2023-05-15T15:38:00.918Z,12.10
2023-05-15T15:40:30.034Z,8.13
2023-05-15T15:42:58.958Z,7.90
2023-05-15T15:45:29.892Z,6.23
2023-05-15T15:47:58.866Z,13.30
2023-05-15T15:50:27.952Z,15.40
2023-05-15T15:52:57.080Z,12.57
2023-05-15T15:55:26.012Z,12.27
2023-05-15T15:57:54.891Z,20.80
2023-05-15T16:00:24.667Z,9.80
2023-05-15T16:02:56.094Z,8.83
2023-05-15T16:05:24.870Z,10.47
2023-05-15T16:07:53.803Z,32.83
2023-05-15T16:10:22.772Z,16.97
2023-05-15T16:12:51.563Z,15.77
2023-05-15T16:15:31.460Z,15.20
2023-05-15T16:18:00.394Z,11.57
2023-05-15T16:20:29.447Z,11.47
2023-05-15T16:22:58.319Z,19.50
2023-05-15T16:25:27.176Z,11.60
2023-05-15T16:27:55.851Z,13.30
2023-05-15T16:30:33.673Z,12.77
2023-05-15T16:33:11.088Z,11.90
2023-05-15T16:35:39.805Z,11.80
2023-05-15T16:38:08.478Z,12.87
2023-05-15T16:40:37.347Z,13.73
2023-05-15T16:43:06.241Z,14.03
2023-05-15T16:45:35.930Z,14.37
2023-05-15T16:48:04.951Z,35.27
2023-05-15T16:50:38.786Z,13.50
2023-05-15T16:53:10.435Z,18.37
2023-05-15T16:55:40.373Z,18.13
2023-05-15T16:58:16.644Z,14.77
2023-05-15T17:00:45.989Z,16.40
2023-05-15T17:03:15.539Z,15.87
2023-05-15T17:05:47.910Z,14.73
2023-05-15T17:08:16.840Z,14.97
2023-05-15T17:10:45.663Z,15.87
2023-05-15T17:13:14.984Z,17.93
2023-05-15T17:15:44.187Z,14.93
2023-05-15T17:18:13.184Z,14.87
2023-05-15T17:20:41.901Z,18.30
2023-05-15T17:23:12.123Z,15.47
2023-05-15T17:25:40.851Z,16.97
2023-05-15T17:28:09.727Z,17.33
2023-05-15T17:30:38.495Z,16.83
2023-05-15T17:33:07.302Z,15.20
2023-05-15T17:35:35.975Z,15.67
2023-05-15T17:38:04.811Z,15.30
2023-05-15T17:40:35.010Z,15.43
2023-05-15T17:43:04.140Z,15.90
2023-05-15T17:45:33.078Z,15.70
2023-05-15T17:48:04.035Z,17.77
2023-05-15T17:50:32.897Z,18.03
2023-05-15T17:53:01.613Z,18.70
2023-05-15T17:55:30.306Z,17.63
2023-05-15T17:58:00.634Z,17.50
2023-05-15T18:00:29.658Z,17.87
2023-05-15T18:02:58.507Z,15.90
2023-05-15T18:05:27.980Z,16.40
2023-05-15T18:07:59.787Z,17.50
2023-05-15T18:10:28.556Z,16.13
2023-05-15T18:12:57.482Z,16.53
2023-05-15T18:15:27.944Z,16.00
2023-05-15T18:17:57.568Z,17.63
2023-05-15T18:20:26.563Z,17.60
2023-05-15T18:22:55.385Z,16.77
2023-05-15T18:25:24.451Z,16.53
2023-05-15T18:27:53.645Z,15.67
2023-05-15T18:30:22.651Z,15.80
2023-05-15T18:32:53.164Z,16.20
2023-05-15T18:35:22.243Z,16.77
2023-05-15T18:37:51.181Z,17.00
2023-05-15T18:40:20.302Z,19.23
2023-05-15T18:42:49.192Z,18.33
2023-05-15T18:45:18.713Z,19.63
2023-05-15T18:47:48.672Z,18.23
2023-05-15T18:50:19.313Z,19.63
2023-05-15T18:52:48.282Z,18.40
2023-05-15T18:55:17.387Z,20.73
2023-05-15T18:57:46.845Z,18.60
2023-05-15T19:00:26.738Z,18.80
2023-05-15T19:03:05.932Z,17.80
2023-05-15T19:05:36.823Z,18.37
2023-05-15T19:08:05.827Z,18.60
2023-05-15T19:10:34.955Z,17.83
2023-05-15T19:13:03.790Z,17.20
2023-05-15T19:15:33.123Z,17.10
2023-05-15T19:18:02.210Z,18.63
2023-05-15T19:20:31.153Z,17.60
2023-05-15T19:23:01.586Z,15.97
2023-05-15T19:25:30.619Z,16.00
2023-05-15T19:27:59.423Z,14.80
2023-05-15T19:30:28.642Z,15.97
2023-05-15T19:32:58.026Z,15.40
2023-05-15T19:35:27.122Z,14.47
2023-05-15T19:37:55.854Z,17.10
2023-05-15T19:40:26.455Z,15.53
2023-05-15T19:42:55.519Z,15.57
2023-05-15T19:45:24.338Z,14.70
2023-05-15T19:47:53.412Z,13.77
2023-05-15T19:50:22.307Z,13.13
2023-05-15T19:52:51.173Z,13.10
2023-05-15T19:55:20.336Z,15.50
2023-05-15T19:57:51.169Z,14.57
2023-05-15T20:00:20.410Z,15.37
2023-05-15T20:02:50.683Z,14.60
2023-05-15T20:05:20.123Z,14.67
2023-05-15T20:07:49.071Z,15.40
2023-05-15T20:10:19.285Z,18.20
2023-05-15T20:12:48.450Z,18.17
2023-05-15T20:15:18.809Z,17.30
2023-05-15T20:17:48.180Z,17.47
2023-05-15T20:20:18.111Z,19.67
2023-05-15T20:22:47.477Z,21.60
2023-05-15T20:25:16.944Z,19.70
2023-05-15T20:27:45.765Z,22.37
2023-05-15T20:30:14.823Z,22.33
2023-05-15T20:32:45.162Z,20.37
2023-05-15T20:35:14.113Z,21.53
2023-05-15T20:37:43.233Z,20.00
2023-05-15T20:40:13.248Z,21.43
2023-05-15T20:42:42.065Z,21.83
2023-05-15T20:45:12.192Z,21.57
2023-05-15T20:47:41.003Z,21.93
2023-05-15T20:50:12.767Z,19.30
2023-05-15T20:52:41.589Z,21.53
2023-05-15T20:55:16.353Z,21.70
2023-05-15T20:57:45.523Z,20.70
2023-05-15T21:00:16.971Z,20.50
2023-05-15T21:02:46.761Z,20.20
2023-05-15T21:05:17.300Z,19.60
2023-05-15T21:07:46.070Z,18.57
2023-05-15T21:10:14.846Z,19.87
2023-05-15T21:12:43.614Z,18.13
2023-05-15T21:15:12.908Z,20.90
2023-05-15T21:17:41.772Z,20.53
2023-05-15T21:20:11.488Z,18.40
2023-05-15T21:22:42.016Z,19.73
2023-05-15T21:25:12.183Z,18.20
2023-05-15T21:27:42.287Z,18.10
2023-05-15T21:30:11.842Z,18.90
2023-05-15T21:32:40.727Z,21.50
2023-05-15T21:35:10.325Z,22.50
2023-05-15T21:37:40.418Z,20.17
2023-05-15T21:40:10.443Z,23.43
2023-05-15T21:42:39.428Z,20.60
2023-05-15T21:45:09.288Z,21.70
2023-05-15T21:47:38.023Z,19.53
2023-05-15T21:50:08.329Z,22.03
2023-05-15T21:52:37.138Z,18.97
2023-05-15T21:55:08.857Z,16.50
2023-05-15T21:57:37.608Z,16.90
2023-05-15T22:00:08.511Z,18.73
2023-05-15T22:02:37.173Z,20.30
2023-05-15T22:05:06.624Z,17.50
2023-05-15T22:07:35.430Z,15.83
2023-05-15T22:10:04.809Z,15.80
2023-05-15T22:12:35.014Z,16.90
2023-05-15T22:15:03.717Z,16.20
2023-05-15T22:17:32.467Z,16.13
2023-05-15T22:20:08.323Z,16.57
2023-05-15T22:22:37.486Z,15.60
2023-05-15T22:25:07.344Z,15.97
2023-05-15T22:27:37.821Z,16.20
2023-05-15T22:30:07.858Z,14.63
2023-05-15T22:32:36.646Z,14.37
2023-05-15T22:35:05.642Z,15.23
2023-05-15T22:37:34.258Z,15.57
2023-05-15T22:40:03.098Z,15.23
2023-05-15T22:42:31.820Z,14.83
2023-05-15T22:45:01.888Z,16.63
2023-05-15T22:47:30.859Z,16.83
2023-05-15T22:49:59.587Z,15.80
2023-05-15T22:52:30.561Z,15.97
2023-05-15T22:54:59.270Z,15.63
2023-05-15T22:57:28.465Z,16.07
2023-05-15T22:59:57.048Z,17.43
2023-05-15T23:02:27.290Z,18.00
2023-05-15T23:04:55.918Z,17.13
2023-05-15T23:07:24.559Z,17.00
2023-05-15T23:09:53.220Z,18.43
2023-05-15T23:12:21.930Z,19.03
2023-05-15T23:14:50.751Z,20.17
2023-05-15T23:17:19.509Z,18.70
2023-05-15T23:19:49.574Z,20.00
2023-05-15T23:22:18.252Z,22.23
2023-05-15T23:24:46.815Z,19.83
2023-05-15T23:27:15.516Z,19.57
2023-05-15T23:29:44.148Z,21.37
2023-05-15T23:32:13.459Z,20.50
2023-05-15T23:34:42.186Z,20.07
2023-05-15T23:37:12.417Z,20.10
2023-05-15T23:39:41.175Z,19.43
2023-05-15T23:42:10.247Z,19.10
2023-05-15T23:44:39.058Z,21.00
2023-05-15T23:47:08.139Z,19.33
2023-05-15T23:49:36.920Z,20.80
2023-05-15T23:52:05.749Z,20.17
2023-05-15T23:54:35.820Z,20.53
2023-05-15T23:57:04.441Z,21.57
2023-05-15T23:59:33.228Z,19.90
